createdAt,value
2017-09-07T00:00:00.983Z,0
2017-09-07T00:01:00.320Z,0
2017-09-07T00:02:00.975Z,0
2017-09-07T00:03:00.289Z,0
2017-09-07T00:04:00.604Z,0
2017-09-07T00:05:00.599Z,0
2017-09-07T00:06:00.902Z,0
2017-09-07T00:07:00.557Z,0
2017-09-07T00:08:00.553Z,0
2017-09-07T00:09:01.179Z,0
2017-09-07T00:10:00.210Z,0
2017-09-07T00:11:00.835Z,0
2017-09-07T00:12:00.511Z,0
2017-09-07T00:13:00.808Z,0
2017-09-07T00:14:00.463Z,0
2017-09-07T00:15:00.778Z,0
2017-09-07T00:16:00.754Z,0
2017-09-07T00:17:00.428Z,0
2017-09-07T00:18:00.618Z,0
2017-09-07T00:19:00.399Z,0
2017-09-07T00:20:00.068Z,0
2017-09-07T00:21:00.372Z,0
2017-09-07T00:22:00.672Z,0
2017-09-07T00:23:00.339Z,0
2017-09-07T00:24:00.654Z,0
2017-09-07T00:24:59.995Z,0
2017-09-07T00:26:00.300Z,0
2017-09-07T00:26:59.962Z,0
2017-09-07T00:28:00.594Z,0
2017-09-07T00:28:59.946Z,0
2017-09-07T00:29:59.973Z,0
2017-09-07T00:31:00.234Z,0
2017-09-07T00:32:00.226Z,0
2017-09-07T00:33:00.215Z,0
2017-09-07T00:34:00.195Z,0
2017-09-07T00:34:59.876Z,0
2017-09-07T00:36:00.166Z,0
2017-09-07T00:36:59.846Z,0
2017-09-07T00:37:59.825Z,0
2017-09-07T00:39:00.125Z,0
2017-09-07T00:39:59.790Z,0
2017-09-07T00:41:00.427Z,0
2017-09-07T00:42:00.128Z,0
2017-09-07T00:43:00.078Z,0
2017-09-07T00:44:00.395Z,0
2017-09-07T00:45:00.048Z,0
2017-09-07T00:46:00.026Z,0
2017-09-07T00:47:00.660Z,0
2017-09-07T00:48:00.333Z,0
2017-09-07T00:49:00.314Z,0
2017-09-07T00:50:00.624Z,0
2017-09-07T00:50:59.646Z,0
2017-09-07T00:51:59.968Z,0
2017-09-07T00:52:59.948Z,0
2017-09-07T00:54:00.251Z,0
2017-09-07T00:55:00.231Z,0
2017-09-07T00:56:00.221Z,0
2017-09-07T00:56:59.566Z,0
2017-09-07T00:57:59.875Z,0
2017-09-07T00:59:00.496Z,0
2017-09-07T00:59:59.523Z,0
2017-09-07T01:01:00.147Z,0
2017-09-07T01:02:00.145Z,0
2017-09-07T01:02:59.481Z,0
2017-09-07T01:04:00.113Z,0
2017-09-07T01:04:59.776Z,0
2017-09-07T01:06:00.103Z,0
2017-09-07T01:06:59.757Z,0
2017-09-07T01:07:59.732Z,0
2017-09-07T01:09:00.051Z,0
2017-09-07T01:09:59.388Z,0
2017-09-07T01:10:59.706Z,0
2017-09-07T01:11:59.685Z,0
2017-09-07T01:12:59.665Z,0
2017-09-07T01:13:59.652Z,0
2017-09-07T01:14:59.644Z,0
2017-09-07T01:15:59.949Z,0
2017-09-07T01:16:59.938Z,0
2017-09-07T01:17:59.602Z,0
2017-09-07T01:18:59.589Z,0
2017-09-07T01:19:59.926Z,0
2017-09-07T01:20:59.234Z,0
2017-09-07T01:21:59.878Z,0
2017-09-07T01:22:59.858Z,0
2017-09-07T01:23:59.203Z,0
2017-09-07T01:24:59.514Z,0
2017-09-07T01:25:59.495Z,0
2017-09-07T01:26:59.484Z,0
2017-09-07T01:27:59.792Z,0
2017-09-07T01:28:59.774Z,0
2017-09-07T01:29:59.770Z,0
2017-09-07T01:30:59.425Z,0
2017-09-07T01:32:00.063Z,0
2017-09-07T01:32:59.078Z,0
2017-09-07T01:33:59.384Z,0
2017-09-07T01:34:59.720Z,0
2017-09-07T01:35:59.687Z,0
2017-09-07T01:36:59.372Z,0
2017-09-07T01:37:59.342Z,0
2017-09-07T01:38:59.967Z,0
2017-09-07T01:39:59.957Z,0
2017-09-07T01:40:59.336Z,0
2017-09-07T01:41:59.646Z,0
2017-09-07T01:42:59.615Z,0
2017-09-07T01:43:59.947Z,0
2017-09-07T01:44:59.593Z,0
2017-09-07T01:45:58.902Z,0
2017-09-07T01:46:59.862Z,0
2017-09-07T01:47:59.844Z,0
2017-09-07T01:48:59.185Z,0
2017-09-07T01:49:59.505Z,0
2017-09-07T01:50:59.802Z,0
2017-09-07T01:51:59.487Z,0
2017-09-07T01:52:59.135Z,0
2017-09-07T01:53:58.793Z,0
2017-09-07T01:54:59.113Z,0
2017-09-07T01:55:58.450Z,0
2017-09-07T01:56:59.401Z,0
2017-09-07T01:57:59.737Z,0
2017-09-07T01:58:59.053Z,0
2017-09-07T01:59:58.724Z,0
2017-09-07T02:00:59.372Z,0
2017-09-07T02:01:59.009Z,0
2017-09-07T02:02:59.321Z,0
2017-09-07T02:03:59.308Z,0
2017-09-07T02:04:58.985Z,0
2017-09-07T02:05:59.330Z,0
2017-09-07T02:06:58.620Z,0
2017-09-07T02:07:59.252Z,0
2017-09-07T02:08:58.922Z,0
2017-09-07T02:09:58.268Z,0
2017-09-07T02:10:58.570Z,0
2017-09-07T02:11:58.554Z,0
2017-09-07T02:12:58.541Z,0
2017-09-07T02:13:58.854Z,0
2017-09-07T02:14:58.834Z,0
2017-09-07T02:15:58.504Z,0
2017-09-07T02:16:58.814Z,0
2017-09-07T02:17:58.996Z,0
2017-09-07T02:18:58.468Z,0
2017-09-07T02:19:58.450Z,0
2017-09-07T02:20:58.434Z,0
2017-09-07T02:21:59.066Z,0
2017-09-07T02:22:59.072Z,0
2017-09-07T02:23:58.391Z,0
2017-09-07T02:24:58.066Z,0
2017-09-07T02:25:59.334Z,0
2017-09-07T02:26:59.000Z,0
2017-09-07T02:27:58.660Z,0
2017-09-07T02:28:58.644Z,0
2017-09-07T02:29:58.963Z,0
2017-09-07T02:30:57.981Z,0
2017-09-07T02:31:58.609Z,0
2017-09-07T02:32:58.594Z,0
2017-09-07T02:33:58.782Z,0
2017-09-07T02:34:57.930Z,0
2017-09-07T02:35:58.233Z,0
2017-09-07T02:36:58.541Z,0
2017-09-07T02:37:58.544Z,0
2017-09-07T02:38:58.845Z,0
2017-09-07T02:39:58.828Z,0
2017-09-07T02:40:58.167Z,0
2017-09-07T02:41:57.847Z,0
2017-09-07T02:42:59.112Z,0
2017-09-07T02:43:58.489Z,0
2017-09-07T02:44:58.440Z,0
2017-09-07T02:45:58.428Z,0
2017-09-07T02:46:59.044Z,0
2017-09-07T02:47:58.397Z,0
2017-09-07T02:48:58.384Z,0
2017-09-07T02:49:57.739Z,0
2017-09-07T02:50:59.015Z,0
2017-09-07T02:51:58.342Z,0
2017-09-07T02:52:58.970Z,0
2017-09-07T02:53:58.642Z,0
2017-09-07T02:54:58.300Z,0
2017-09-07T02:55:58.617Z,0
2017-09-07T02:56:58.596Z,0
2017-09-07T02:57:58.586Z,0
2017-09-07T02:58:58.563Z,0
2017-09-07T02:59:58.234Z,0
2017-09-07T03:00:57.577Z,0
2017-09-07T03:01:58.207Z,0
2017-09-07T03:02:57.884Z,0
2017-09-07T03:03:58.820Z,0
2017-09-07T03:04:58.491Z,0
2017-09-07T03:05:58.472Z,0
2017-09-07T03:06:58.139Z,0
2017-09-07T03:07:57.796Z,0
2017-09-07T03:08:57.795Z,0
2017-09-07T03:09:58.420Z,0
2017-09-07T03:10:58.419Z,0
2017-09-07T03:11:57.747Z,0
2017-09-07T03:12:58.059Z,0
2017-09-07T03:13:58.368Z,0
2017-09-07T03:14:57.716Z,0
2017-09-07T03:15:58.017Z,0
2017-09-07T03:16:58.321Z,0
2017-09-07T03:17:57.681Z,0
2017-09-07T03:18:57.979Z,0
2017-09-07T03:19:57.635Z,0
2017-09-07T03:20:57.951Z,0
2017-09-07T03:21:57.947Z,0
2017-09-07T03:22:57.599Z,0
2017-09-07T03:23:58.230Z,0
2017-09-07T03:24:57.903Z,0
2017-09-07T03:25:58.529Z,0
2017-09-07T03:26:57.552Z,0
2017-09-07T03:27:57.533Z,0
2017-09-07T03:28:57.845Z,0
2017-09-07T03:29:57.509Z,0
2017-09-07T03:30:57.525Z,0
2017-09-07T03:31:57.486Z,0
2017-09-07T03:32:57.817Z,0
2017-09-07T03:33:58.099Z,0
2017-09-07T03:34:57.450Z,0
2017-09-07T03:35:58.067Z,0
2017-09-07T03:36:58.052Z,0
2017-09-07T03:37:58.042Z,0
2017-09-07T03:38:57.063Z,0
2017-09-07T03:39:57.691Z,0
2017-09-07T03:40:58.015Z,0
2017-09-07T03:41:57.674Z,0
2017-09-07T03:42:57.970Z,0
2017-09-07T03:43:57.327Z,0
2017-09-07T03:44:57.955Z,0
2017-09-07T03:45:57.622Z,0
2017-09-07T03:46:57.922Z,0
2017-09-07T03:47:57.906Z,0
2017-09-07T03:48:58.219Z,0
2017-09-07T03:49:57.885Z,0
2017-09-07T03:50:57.235Z,0
2017-09-07T03:51:57.223Z,0
2017-09-07T03:52:57.852Z,0
2017-09-07T03:53:57.828Z,0
2017-09-07T03:54:57.811Z,0
2017-09-07T03:55:57.803Z,0
2017-09-07T03:56:57.461Z,0
2017-09-07T03:57:57.454Z,0
2017-09-07T03:58:57.762Z,0
2017-09-07T03:59:57.109Z,0
2017-09-07T04:00:57.410Z,0
2017-09-07T04:01:57.405Z,0
2017-09-07T04:02:57.707Z,0
2017-09-07T04:03:57.693Z,0
2017-09-07T04:04:57.041Z,0
2017-09-07T04:05:57.343Z,0
2017-09-07T04:06:57.341Z,0
2017-09-07T04:07:57.317Z,0
2017-09-07T04:08:57.641Z,0
2017-09-07T04:09:57.618Z,0
2017-09-07T04:10:57.596Z,0
2017-09-07T04:11:57.593Z,0
2017-09-07T04:12:56.937Z,0
2017-09-07T04:13:57.298Z,0
2017-09-07T04:14:56.904Z,0
2017-09-07T04:15:56.896Z,0
2017-09-07T04:16:57.531Z,0
2017-09-07T04:17:57.717Z,0
2017-09-07T04:18:57.499Z,0
2017-09-07T04:19:56.851Z,0
2017-09-07T04:20:57.482Z,0
2017-09-07T04:21:56.817Z,0
2017-09-07T04:22:57.125Z,0
2017-09-07T04:23:57.108Z,0
2017-09-07T04:24:56.771Z,0
2017-09-07T04:25:57.083Z,0
2017-09-07T04:26:56.755Z,0
2017-09-07T04:27:57.378Z,0
2017-09-07T04:28:57.043Z,0
2017-09-07T04:29:57.666Z,0
2017-09-07T04:30:56.692Z,0
2017-09-07T04:31:57.002Z,0
2017-09-07T04:32:57.306Z,0
2017-09-07T04:33:57.347Z,0
2017-09-07T04:34:56.641Z,0
2017-09-07T04:35:56.306Z,0
2017-09-07T04:36:56.617Z,0
2017-09-07T04:37:56.923Z,0
2017-09-07T04:38:57.225Z,0
2017-09-07T04:39:57.227Z,0
2017-09-07T04:40:57.533Z,0
2017-09-07T04:41:56.890Z,0
2017-09-07T04:42:56.546Z,0
2017-09-07T04:43:56.535Z,0
2017-09-07T04:44:56.844Z,0
2017-09-07T04:45:57.462Z,0
2017-09-07T04:46:57.134Z,0
2017-09-07T04:47:56.790Z,0
2017-09-07T04:48:57.105Z,0
2017-09-07T04:49:56.765Z,0
2017-09-07T04:50:56.752Z,0
2017-09-07T04:51:57.420Z,0
2017-09-07T04:52:56.731Z,0
2017-09-07T04:53:56.076Z,0
2017-09-07T04:54:57.022Z,0
2017-09-07T04:55:57.016Z,0
2017-09-07T04:56:56.668Z,0
2017-09-07T04:57:57.297Z,0
2017-09-07T04:58:57.055Z,0
2017-09-07T04:59:57.100Z,0
2017-09-07T05:00:56.652Z,0
2017-09-07T05:01:56.964Z,0
2017-09-07T05:02:56.585Z,0
2017-09-07T05:03:56.956Z,0
2017-09-07T05:04:56.568Z,0
2017-09-07T05:05:56.237Z,0
2017-09-07T05:06:56.531Z,0
2017-09-07T05:07:57.178Z,5
2017-09-07T05:08:56.509Z,5
2017-09-07T05:09:56.495Z,5
2017-09-07T05:10:56.474Z,5
2017-09-07T05:11:56.142Z,5
2017-09-07T05:12:56.776Z,5
2017-09-07T05:13:57.078Z,5
2017-09-07T05:14:56.102Z,5
2017-09-07T05:15:56.405Z,5
2017-09-07T05:16:56.074Z,10
2017-09-07T05:17:57.025Z,10
2017-09-07T05:18:56.441Z,10
2017-09-07T05:19:56.032Z,10
2017-09-07T05:20:56.660Z,10
2017-09-07T05:21:56.653Z,15
2017-09-07T05:22:56.320Z,15
2017-09-07T05:23:56.017Z,15
2017-09-07T05:24:55.970Z,15
2017-09-07T05:25:56.597Z,15
2017-09-07T05:26:56.283Z,15
2017-09-07T05:27:55.917Z,15
2017-09-07T05:28:56.229Z,15
2017-09-07T05:29:56.862Z,15
2017-09-07T05:30:56.211Z,15
2017-09-07T05:31:56.184Z,15
2017-09-07T05:32:56.176Z,15
2017-09-07T05:33:56.159Z,20
2017-09-07T05:34:55.822Z,20
2017-09-07T05:35:56.448Z,20
2017-09-07T05:36:56.126Z,20
2017-09-07T05:37:56.107Z,25
2017-09-07T05:38:55.451Z,25
2017-09-07T05:39:56.089Z,30
2017-09-07T05:40:55.744Z,35
2017-09-07T05:41:56.048Z,30
2017-09-07T05:42:56.714Z,30
2017-09-07T05:43:56.026Z,30
2017-09-07T05:44:56.325Z,35
2017-09-07T05:45:56.319Z,35
2017-09-07T05:46:56.306Z,35
2017-09-07T05:47:55.965Z,35
2017-09-07T05:48:55.960Z,35
2017-09-07T05:49:55.618Z,40
2017-09-07T05:50:55.927Z,40
2017-09-07T05:51:55.910Z,40
2017-09-07T05:52:55.465Z,35
2017-09-07T05:53:56.207Z,35
2017-09-07T05:54:56.191Z,40
2017-09-07T05:55:55.857Z,40
2017-09-07T05:56:55.526Z,40
2017-09-07T05:57:56.475Z,45
2017-09-07T05:58:56.137Z,40
2017-09-07T05:59:56.129Z,45
2017-09-07T06:00:56.110Z,50
2017-09-07T06:01:55.784Z,50
2017-09-07T06:02:55.445Z,55
2017-09-07T06:03:56.074Z,55
2017-09-07T06:04:56.382Z,55
2017-09-07T06:05:55.732Z,55
2017-09-07T06:06:56.391Z,55
2017-09-07T06:07:55.711Z,55
2017-09-07T06:08:55.373Z,55
2017-09-07T06:09:56.006Z,55
2017-09-07T06:10:55.346Z,60
2017-09-07T06:11:55.319Z,55
2017-09-07T06:12:55.956Z,50
2017-09-07T06:13:55.295Z,50
2017-09-07T06:14:55.609Z,45
2017-09-07T06:15:55.962Z,45
2017-09-07T06:16:55.902Z,50
2017-09-07T06:17:56.092Z,50
2017-09-07T06:18:55.545Z,55
2017-09-07T06:19:55.534Z,55
2017-09-07T06:20:56.195Z,50
2017-09-07T06:21:55.508Z,50
2017-09-07T06:22:55.500Z,55
2017-09-07T06:23:55.807Z,60
2017-09-07T06:24:55.478Z,65
2017-09-07T06:25:55.467Z,70
2017-09-07T06:26:55.445Z,75
2017-09-07T06:27:55.767Z,75
2017-09-07T06:28:55.745Z,80
2017-09-07T06:29:55.402Z,80
2017-09-07T06:30:56.035Z,75
2017-09-07T06:31:55.060Z,70
2017-09-07T06:32:55.049Z,65
2017-09-07T06:33:55.027Z,55
2017-09-07T06:34:55.661Z,50
2017-09-07T06:35:55.326Z,45
2017-09-07T06:36:54.994Z,45
2017-09-07T06:37:54.661Z,40
2017-09-07T06:38:55.285Z,45
2017-09-07T06:39:55.607Z,45
2017-09-07T06:40:55.583Z,45
2017-09-07T06:41:54.928Z,45
2017-09-07T06:42:55.881Z,50
2017-09-07T06:43:55.860Z,55
2017-09-07T06:44:55.536Z,60
2017-09-07T06:45:55.512Z,55
2017-09-07T06:46:55.185Z,55
2017-09-07T06:47:54.852Z,55
2017-09-07T06:48:54.516Z,55
2017-09-07T06:49:54.837Z,50
2017-09-07T06:50:54.816Z,50
2017-09-07T06:51:55.438Z,50
2017-09-07T06:52:55.430Z,50
2017-09-07T06:53:55.743Z,50
2017-09-07T06:54:55.429Z,50
2017-09-07T06:55:54.750Z,50
2017-09-07T06:56:55.379Z,50
2017-09-07T06:57:55.045Z,50
2017-09-07T06:58:55.346Z,55
2017-09-07T06:59:54.696Z,55
2017-09-07T07:00:54.681Z,55
2017-09-07T07:01:54.669Z,60
2017-09-07T07:02:54.971Z,70
2017-09-07T07:03:54.959Z,80
2017-09-07T07:04:54.955Z,85
2017-09-07T07:05:55.271Z,85
2017-09-07T07:06:55.272Z,90
2017-09-07T07:07:54.910Z,90
2017-09-07T07:08:55.218Z,85
2017-09-07T07:09:55.204Z,80
2017-09-07T07:10:54.870Z,80
2017-09-07T07:11:55.182Z,80
2017-09-07T07:12:54.844Z,85
2017-09-07T07:13:54.831Z,85
2017-09-07T07:14:54.170Z,90
2017-09-07T07:15:55.166Z,110
2017-09-07T07:16:55.120Z,130
2017-09-07T07:17:55.097Z,125
2017-09-07T07:18:54.443Z,110
2017-09-07T07:19:54.757Z,90
2017-09-07T07:20:55.401Z,85
2017-09-07T07:21:54.732Z,85
2017-09-07T07:22:55.081Z,85
2017-09-07T07:23:54.713Z,85
2017-09-07T07:24:54.688Z,90
2017-09-07T07:25:54.686Z,90
2017-09-07T07:26:55.002Z,90
2017-09-07T07:27:54.330Z,95
2017-09-07T07:28:54.979Z,95
2017-09-07T07:29:53.997Z,100
2017-09-07T07:30:54.643Z,105
2017-09-07T07:31:54.936Z,110
2017-09-07T07:32:54.587Z,115
2017-09-07T07:33:54.574Z,115
2017-09-07T07:34:54.250Z,120
2017-09-07T07:35:55.208Z,125
2017-09-07T07:36:54.540Z,125
2017-09-07T07:37:53.888Z,115
2017-09-07T07:38:53.872Z,115
2017-09-07T07:39:54.505Z,115
2017-09-07T07:40:54.818Z,120
2017-09-07T07:41:54.487Z,130
2017-09-07T07:42:54.463Z,135
2017-09-07T07:43:54.457Z,135
2017-09-07T07:44:54.440Z,130
2017-09-07T07:45:54.757Z,130
2017-09-07T07:46:54.099Z,130
2017-09-07T07:47:54.728Z,120
2017-09-07T07:48:54.391Z,115
2017-09-07T07:49:54.380Z,120
2017-09-07T07:50:54.367Z,125
2017-09-07T07:51:54.362Z,130
2017-09-07T07:52:54.359Z,125
2017-09-07T07:53:54.011Z,120
2017-09-07T07:54:54.031Z,120
2017-09-07T07:55:54.644Z,120
2017-09-07T07:56:53.988Z,120
2017-09-07T07:57:53.950Z,125
2017-09-07T07:58:54.274Z,125
2017-09-07T07:59:54.255Z,125
2017-09-07T08:00:53.606Z,130
2017-09-07T08:01:54.554Z,140
2017-09-07T08:02:54.220Z,140
2017-09-07T08:03:54.209Z,155
2017-09-07T08:04:54.196Z,170
2017-09-07T08:05:55.033Z,180
2017-09-07T08:06:54.167Z,190
2017-09-07T08:07:54.485Z,200
2017-09-07T08:08:54.140Z,205
2017-09-07T08:09:54.455Z,215
2017-09-07T08:10:54.443Z,215
2017-09-07T08:11:54.432Z,215
2017-09-07T08:12:54.110Z,210
2017-09-07T08:13:54.087Z,200
2017-09-07T08:14:54.091Z,190
2017-09-07T08:15:54.270Z,185
2017-09-07T08:16:54.399Z,195
2017-09-07T08:17:54.880Z,210
2017-09-07T08:18:54.036Z,220
2017-09-07T08:19:54.022Z,235
2017-09-07T08:20:54.652Z,240
2017-09-07T08:21:54.328Z,240
2017-09-07T08:22:54.045Z,225
2017-09-07T08:23:54.614Z,230
2017-09-07T08:24:53.640Z,230
2017-09-07T08:25:53.967Z,240
2017-09-07T08:26:53.940Z,235
2017-09-07T08:27:54.581Z,225
2017-09-07T08:28:53.929Z,230
2017-09-07T08:29:53.912Z,245
2017-09-07T08:30:53.897Z,260
2017-09-07T08:31:53.244Z,280
2017-09-07T08:32:53.925Z,290
2017-09-07T08:33:53.901Z,295
2017-09-07T08:34:53.212Z,295
2017-09-07T08:35:53.521Z,295
2017-09-07T08:36:53.834Z,300
2017-09-07T08:37:53.850Z,285
2017-09-07T08:38:53.808Z,290
2017-09-07T08:39:54.122Z,290
2017-09-07T08:40:54.452Z,295
2017-09-07T08:41:53.792Z,295
2017-09-07T08:42:53.842Z,285
2017-09-07T08:43:53.772Z,280
2017-09-07T08:44:53.756Z,270
2017-09-07T08:45:54.387Z,275
2017-09-07T08:46:54.385Z,260
2017-09-07T08:47:53.723Z,260
2017-09-07T08:48:53.710Z,265
2017-09-07T08:49:53.701Z,270
2017-09-07T08:50:53.694Z,285
2017-09-07T08:51:53.369Z,295
2017-09-07T08:52:53.677Z,300
2017-09-07T08:53:53.991Z,300
2017-09-07T08:54:53.997Z,305
2017-09-07T08:55:53.974Z,315
2017-09-07T08:56:53.961Z,320
2017-09-07T08:57:53.947Z,325
2017-09-07T08:58:53.616Z,320
2017-09-07T08:59:53.933Z,335
2017-09-07T09:00:52.959Z,335
2017-09-07T09:01:53.586Z,350
2017-09-07T09:02:53.265Z,350
2017-09-07T09:03:53.571Z,335
2017-09-07T09:04:53.573Z,320
2017-09-07T09:05:53.559Z,310
2017-09-07T09:06:53.860Z,305
2017-09-07T09:07:53.222Z,300
2017-09-07T09:08:53.522Z,305
2017-09-07T09:09:53.516Z,315
2017-09-07T09:10:53.518Z,335
2017-09-07T09:11:53.858Z,290
2017-09-07T09:12:53.809Z,240
2017-09-07T09:13:54.120Z,235
2017-09-07T09:14:53.470Z,265
2017-09-07T09:15:54.103Z,330
2017-09-07T09:16:53.449Z,300
2017-09-07T09:17:53.480Z,230
2017-09-07T09:18:53.757Z,220
2017-09-07T09:19:53.429Z,210
2017-09-07T09:20:53.412Z,180
2017-09-07T09:21:53.411Z,145
2017-09-07T09:22:53.734Z,145
2017-09-07T09:23:53.068Z,155
2017-09-07T09:24:53.699Z,165
2017-09-07T09:25:53.051Z,170
2017-09-07T09:26:53.048Z,185
2017-09-07T09:27:53.022Z,200
2017-09-07T09:28:53.337Z,205
2017-09-07T09:29:54.012Z,215
2017-09-07T09:30:53.654Z,235
2017-09-07T09:31:53.626Z,250
2017-09-07T09:32:53.015Z,250
2017-09-07T09:33:53.930Z,240
2017-09-07T09:34:53.603Z,245
2017-09-07T09:35:53.265Z,230
2017-09-07T09:36:52.943Z,225
2017-09-07T09:37:53.251Z,145
2017-09-07T09:38:53.240Z,105
2017-09-07T09:39:53.557Z,90
2017-09-07T09:40:53.542Z,105
2017-09-07T09:41:53.211Z,125
2017-09-07T09:42:53.525Z,150
2017-09-07T09:43:53.511Z,175
2017-09-07T09:44:53.524Z,175
2017-09-07T09:45:53.497Z,165
2017-09-07T09:46:52.845Z,165
2017-09-07T09:47:53.474Z,170
2017-09-07T09:48:53.152Z,180
2017-09-07T09:49:53.780Z,190
2017-09-07T09:50:53.767Z,190
2017-09-07T09:51:52.992Z,180
2017-09-07T09:52:53.113Z,185
2017-09-07T09:53:52.778Z,185
2017-09-07T09:54:53.087Z,170
2017-09-07T09:55:53.074Z,170
2017-09-07T09:56:53.391Z,190
2017-09-07T09:57:53.060Z,215
2017-09-07T09:58:53.363Z,210
2017-09-07T09:59:53.687Z,215
2017-09-07T10:00:53.681Z,205
2017-09-07T10:01:53.333Z,180
2017-09-07T10:02:53.324Z,155
2017-09-07T10:03:52.986Z,135
2017-09-07T10:04:52.334Z,130
2017-09-07T10:05:52.962Z,145
2017-09-07T10:06:53.284Z,170
2017-09-07T10:07:52.629Z,170
2017-09-07T10:08:53.291Z,165
2017-09-07T10:09:53.249Z,150
2017-09-07T10:10:52.917Z,135
2017-09-07T10:11:52.916Z,150
2017-09-07T10:12:52.906Z,180
2017-09-07T10:13:52.567Z,240
2017-09-07T10:14:52.892Z,315
2017-09-07T10:15:53.182Z,385
2017-09-07T10:16:52.857Z,425
2017-09-07T10:17:53.691Z,435
2017-09-07T10:18:52.531Z,435
2017-09-07T10:19:52.830Z,440
2017-09-07T10:20:52.829Z,460
2017-09-07T10:21:53.136Z,440
2017-09-07T10:22:52.481Z,440
2017-09-07T10:23:52.795Z,385
2017-09-07T10:24:52.459Z,360
2017-09-07T10:25:53.412Z,345
2017-09-07T10:26:53.081Z,335
2017-09-07T10:27:53.070Z,345
2017-09-07T10:28:53.386Z,355
2017-09-07T10:29:52.414Z,355
2017-09-07T10:30:52.732Z,390
2017-09-07T10:31:53.372Z,400
2017-09-07T10:32:52.385Z,455
2017-09-07T10:33:53.014Z,435
2017-09-07T10:34:52.700Z,415
2017-09-07T10:35:53.006Z,415
2017-09-07T10:36:52.998Z,405
2017-09-07T10:37:52.996Z,410
2017-09-07T10:38:52.980Z,420
2017-09-07T10:39:52.965Z,365
2017-09-07T10:40:52.323Z,390
2017-09-07T10:41:52.949Z,470
2017-09-07T10:42:52.939Z,450
2017-09-07T10:43:52.290Z,750
2017-09-07T10:44:53.251Z,665
2017-09-07T10:45:52.592Z,455
2017-09-07T10:46:52.265Z,645
2017-09-07T10:47:53.226Z,460
2017-09-07T10:48:52.942Z,455
2017-09-07T10:49:52.247Z,560
2017-09-07T10:50:52.236Z,530
2017-09-07T10:51:52.875Z,635
2017-09-07T10:52:53.186Z,610
2017-09-07T10:53:52.858Z,625
2017-09-07T10:54:52.857Z,705
2017-09-07T10:55:53.165Z,520
2017-09-07T10:56:52.836Z,685
2017-09-07T10:57:52.511Z,640
2017-09-07T10:58:52.180Z,475
2017-09-07T10:59:52.495Z,685
2017-09-07T11:00:52.803Z,440
2017-09-07T11:01:52.840Z,390
2017-09-07T11:02:52.468Z,375
2017-09-07T11:03:52.152Z,465
2017-09-07T11:04:52.470Z,420
2017-09-07T11:05:52.771Z,400
2017-09-07T11:06:53.090Z,390
2017-09-07T11:07:52.759Z,555
2017-09-07T11:08:52.435Z,440
2017-09-07T11:09:52.124Z,420
2017-09-07T11:10:52.420Z,380
2017-09-07T11:11:52.092Z,335
2017-09-07T11:12:52.733Z,375
2017-09-07T11:13:52.724Z,215
2017-09-07T11:14:52.719Z,210
2017-09-07T11:15:52.061Z,280
2017-09-07T11:16:52.382Z,500
2017-09-07T11:17:52.371Z,535
2017-09-07T11:18:52.048Z,550
2017-09-07T11:19:53.005Z,555
2017-09-07T11:20:52.723Z,1050
2017-09-07T11:21:52.680Z,930
2017-09-07T11:22:52.015Z,725
2017-09-07T11:23:52.030Z,1515
2017-09-07T11:24:52.331Z,1320
2017-09-07T11:25:52.323Z,1690
2017-09-07T11:26:52.629Z,1660
2017-09-07T11:27:52.307Z,1600
2017-09-07T11:28:52.305Z,1525
2017-09-07T11:29:52.623Z,1445
2017-09-07T11:30:51.977Z,1405
2017-09-07T11:31:52.620Z,1310
2017-09-07T11:32:52.932Z,1415
2017-09-07T11:33:52.932Z,1435
2017-09-07T11:34:52.295Z,1335
2017-09-07T11:35:52.608Z,1560
2017-09-07T11:36:52.290Z,700
2017-09-07T11:37:52.277Z,400
2017-09-07T11:38:51.956Z,675
2017-09-07T11:39:52.273Z,290
2017-09-07T11:40:52.587Z,280
2017-09-07T11:41:51.943Z,285
2017-09-07T11:42:52.275Z,325
2017-09-07T11:43:52.586Z,370
2017-09-07T11:44:52.252Z,365
2017-09-07T11:45:51.938Z,400
2017-09-07T11:46:52.258Z,505
2017-09-07T11:47:52.244Z,435
2017-09-07T11:48:52.562Z,440
2017-09-07T11:49:52.567Z,595
2017-09-07T11:50:52.235Z,560
2017-09-07T11:51:51.912Z,1265
2017-09-07T11:52:51.898Z,1000
2017-09-07T11:53:52.229Z,495
2017-09-07T11:54:52.873Z,1380
2017-09-07T11:55:52.222Z,1550
2017-09-07T11:56:52.208Z,1585
2017-09-07T11:57:52.207Z,900
2017-09-07T11:58:52.210Z,685
2017-09-07T11:59:51.875Z,500
2017-09-07T12:00:51.865Z,460
2017-09-07T12:01:52.830Z,505
2017-09-07T12:02:52.192Z,400
2017-09-07T12:03:52.175Z,305
2017-09-07T12:04:51.533Z,285
2017-09-07T12:05:51.852Z,315
2017-09-07T12:06:52.807Z,580
2017-09-07T12:07:51.842Z,605
2017-09-07T12:08:52.483Z,1495
2017-09-07T12:09:52.800Z,665
2017-09-07T12:10:51.819Z,1435
2017-09-07T12:11:52.141Z,1020
2017-09-07T12:12:52.144Z,1230
2017-09-07T12:13:52.136Z,1745
2017-09-07T12:14:51.807Z,1700
2017-09-07T12:15:51.806Z,1545
2017-09-07T12:16:52.132Z,1550
2017-09-07T12:17:52.768Z,1415
2017-09-07T12:18:52.642Z,1460
2017-09-07T12:19:52.111Z,1015
2017-09-07T12:20:52.438Z,1755
2017-09-07T12:21:52.759Z,1765
2017-09-07T12:22:52.104Z,1650
2017-09-07T12:23:51.463Z,585
2017-09-07T12:24:51.779Z,730
2017-09-07T12:25:52.095Z,1575
2017-09-07T12:26:52.098Z,1600
2017-09-07T12:27:52.299Z,1685
2017-09-07T12:28:51.782Z,1760
2017-09-07T12:29:51.787Z,870
2017-09-07T12:30:52.418Z,1680
2017-09-07T12:31:52.414Z,1695
2017-09-07T12:32:52.415Z,1690
2017-09-07T12:33:52.414Z,1650
2017-09-07T12:34:52.416Z,1040
2017-09-07T12:35:51.455Z,670
2017-09-07T12:36:52.101Z,630
2017-09-07T12:37:52.096Z,505
2017-09-07T12:38:52.742Z,790
2017-09-07T12:39:52.093Z,1440
2017-09-07T12:40:52.415Z,1535
2017-09-07T12:41:52.096Z,1505
2017-09-07T12:42:52.096Z,1460
2017-09-07T12:43:52.103Z,525
2017-09-07T12:44:51.772Z,690
2017-09-07T12:45:52.097Z,1510
2017-09-07T12:46:52.442Z,1520
2017-09-07T12:47:52.098Z,975
2017-09-07T12:48:52.418Z,1465
2017-09-07T12:49:52.739Z,1445
2017-09-07T12:50:52.096Z,1520
2017-09-07T12:51:52.102Z,1525
2017-09-07T12:52:51.776Z,1575
2017-09-07T12:53:52.743Z,1545
2017-09-07T12:54:52.414Z,1470
2017-09-07T12:55:51.457Z,1510
2017-09-07T12:56:52.091Z,1530
2017-09-07T12:57:51.771Z,1560
2017-09-07T12:58:52.102Z,860
2017-09-07T12:59:52.422Z,1395
2017-09-07T13:00:51.771Z,1335
2017-09-07T13:01:52.104Z,1300
2017-09-07T13:02:52.096Z,1280
2017-09-07T13:03:52.417Z,455
2017-09-07T13:04:52.750Z,620
2017-09-07T13:05:52.100Z,1135
2017-09-07T13:06:52.433Z,1100
2017-09-07T13:07:51.781Z,1125
2017-09-07T13:08:51.467Z,1120
2017-09-07T13:09:51.787Z,420
2017-09-07T13:10:51.782Z,500
2017-09-07T13:11:52.098Z,1040
2017-09-07T13:12:51.776Z,415
2017-09-07T13:13:52.103Z,1180
2017-09-07T13:14:52.747Z,1360
2017-09-07T13:15:52.420Z,1110
2017-09-07T13:16:52.093Z,1065
2017-09-07T13:17:52.102Z,275
2017-09-07T13:18:52.098Z,220
2017-09-07T13:19:52.090Z,210
2017-09-07T13:20:52.082Z,175
2017-09-07T13:21:52.742Z,140
2017-09-07T13:22:52.407Z,135
2017-09-07T13:23:52.414Z,125
2017-09-07T13:24:52.405Z,125
2017-09-07T13:25:52.077Z,130
2017-09-07T13:26:51.756Z,140
2017-09-07T13:27:52.073Z,145
2017-09-07T13:28:52.387Z,135
2017-09-07T13:29:52.068Z,115
2017-09-07T13:30:52.711Z,110
2017-09-07T13:31:51.730Z,110
2017-09-07T13:32:52.050Z,110
2017-09-07T13:33:52.055Z,105
2017-09-07T13:34:52.095Z,100
2017-09-07T13:35:52.038Z,95
2017-09-07T13:36:52.353Z,95
2017-09-07T13:37:52.031Z,95
2017-09-07T13:38:51.702Z,90
2017-09-07T13:39:52.401Z,85
2017-09-07T13:40:52.020Z,85
2017-09-07T13:41:51.691Z,90
2017-09-07T13:42:52.024Z,100
2017-09-07T13:43:52.337Z,100
2017-09-07T13:44:52.311Z,110
2017-09-07T13:45:51.661Z,120
2017-09-07T13:46:51.978Z,125
2017-09-07T13:47:51.968Z,145
2017-09-07T13:48:51.963Z,165
2017-09-07T13:49:52.285Z,190
2017-09-07T13:50:51.949Z,220
2017-09-07T13:51:52.578Z,250
2017-09-07T13:52:51.936Z,295
2017-09-07T13:53:51.603Z,295
2017-09-07T13:54:52.244Z,295
2017-09-07T13:55:51.909Z,315
2017-09-07T13:56:51.960Z,350
2017-09-07T13:57:51.574Z,330
2017-09-07T13:58:51.885Z,345
2017-09-07T13:59:51.558Z,325
2017-09-07T14:00:51.547Z,335
2017-09-07T14:01:52.181Z,305
2017-09-07T14:02:52.171Z,315
2017-09-07T14:03:51.851Z,300
2017-09-07T14:04:52.484Z,300
2017-09-07T14:05:51.836Z,300
2017-09-07T14:06:51.502Z,310
2017-09-07T14:07:51.817Z,320
2017-09-07T14:08:51.487Z,350
2017-09-07T14:09:51.158Z,340